createdAt,value
2022-12-19T00:01:52.902Z,0.03
2022-12-19T00:04:21.127Z,0.03
2022-12-19T00:06:47.608Z,0.05
2022-12-19T00:09:14.188Z,0.08
2022-12-19T00:11:40.876Z,0.06
2022-12-19T00:14:09.290Z,0.05
2022-12-19T00:16:35.814Z,0.05
2022-12-19T00:19:03.303Z,0.09
2022-12-19T00:21:32.072Z,0.10
2022-12-19T00:24:01.491Z,0.11
2022-12-19T00:26:31.053Z,0.12
2022-12-19T00:29:11.144Z,0.13
2022-12-19T00:31:40.493Z,0.15
2022-12-19T00:34:07.012Z,0.19
2022-12-19T00:36:34.278Z,0.21
2022-12-19T00:39:01.998Z,0.23
2022-12-19T00:41:34.636Z,0.23
2022-12-19T00:44:07.049Z,0.22
2022-12-19T00:46:35.063Z,0.20
2022-12-19T00:49:02.187Z,0.21
2022-12-19T00:51:31.412Z,0.23
2022-12-19T00:53:58.309Z,0.28
2022-12-19T00:56:27.910Z,0.30
2022-12-19T00:58:55.051Z,0.30
2022-12-19T01:01:24.190Z,0.32
2022-12-19T01:04:26.740Z,0.38
2022-12-19T01:06:37.698Z,0.43
2022-12-19T01:09:08.019Z,0.43
2022-12-19T01:11:53.113Z,0.43
2022-12-19T01:14:23.019Z,0.39
2022-12-19T01:16:50.852Z,0.42
2022-12-19T01:19:17.425Z,0.45
2022-12-19T01:21:43.924Z,0.45
2022-12-19T01:24:11.433Z,0.51
2022-12-19T01:26:38.159Z,0.55
2022-12-19T01:29:05.200Z,0.53
2022-12-19T01:31:33.324Z,0.57
2022-12-19T01:34:00.771Z,0.59
2022-12-19T01:36:27.917Z,0.54
2022-12-19T01:38:57.958Z,0.54
2022-12-19T01:41:24.878Z,0.55
2022-12-19T01:44:04.870Z,0.63
2022-12-19T01:46:57.474Z,0.64
2022-12-19T01:49:32.010Z,0.63
2022-12-19T01:52:06.225Z,0.59
2022-12-19T01:54:38.585Z,0.61
2022-12-19T01:57:10.837Z,0.62
2022-12-19T01:59:43.060Z,0.72
2022-12-19T02:02:28.726Z,0.75
2022-12-19T02:04:55.707Z,0.75
2022-12-19T02:07:24.796Z,0.77
2022-12-19T02:09:56.711Z,0.77
2022-12-19T02:12:25.769Z,0.80
2022-12-19T02:14:54.763Z,0.82
2022-12-19T02:17:35.405Z,0.82
2022-12-19T02:20:23.520Z,0.79
2022-12-19T02:23:27.178Z,0.89
2022-12-19T02:26:11.895Z,0.90
2022-12-19T02:28:53.560Z,0.94
2022-12-19T02:31:29.068Z,0.95
2022-12-19T02:34:17.187Z,0.97
2022-12-19T02:36:55.516Z,0.92
2022-12-19T02:39:23.076Z,0.92
2022-12-19T02:42:00.035Z,0.93
2022-12-19T02:44:26.417Z,0.93
2022-12-19T02:46:53.643Z,0.95
2022-12-19T02:49:30.399Z,0.99
2022-12-19T02:51:57.472Z,1.03
2022-12-19T02:54:24.598Z,1.05
2022-12-19T02:56:58.893Z,1.07
2022-12-19T02:59:40.928Z,1.01
2022-12-19T03:02:16.587Z,1.00
2022-12-19T03:04:59.569Z,1.05
2022-12-19T03:07:42.516Z,1.11
2022-12-19T03:10:30.485Z,1.17
2022-12-19T03:13:03.051Z,1.17
2022-12-19T03:15:31.508Z,1.27
2022-12-19T03:18:00.439Z,1.28
2022-12-19T03:20:45.283Z,1.25
2022-12-19T03:23:13.027Z,1.31
2022-12-19T03:25:43.197Z,1.33
2022-12-19T03:28:17.780Z,1.34
2022-12-19T03:30:46.626Z,1.32
2022-12-19T03:33:16.323Z,1.38
2022-12-19T03:35:43.758Z,1.33
2022-12-19T03:38:13.959Z,1.39
2022-12-19T03:40:44.215Z,1.41
2022-12-19T03:43:12.734Z,1.45
2022-12-19T03:46:05.273Z,1.36
2022-12-19T03:48:42.056Z,1.46
2022-12-19T03:51:20.691Z,1.46
2022-12-19T03:54:01.391Z,1.49
2022-12-19T03:56:38.343Z,1.46
2022-12-19T03:59:10.280Z,1.50
2022-12-19T04:01:38.332Z,1.53
2022-12-19T04:04:06.720Z,1.57
2022-12-19T04:06:34.434Z,1.53
2022-12-19T04:09:02.278Z,1.58
2022-12-19T04:11:35.095Z,1.53
2022-12-19T04:14:08.159Z,1.57
2022-12-19T04:16:50.767Z,1.55
2022-12-19T04:19:39.853Z,1.51
2022-12-19T04:22:16.468Z,1.54
2022-12-19T04:24:46.239Z,1.52
2022-12-19T04:27:14.320Z,1.48
2022-12-19T04:29:42.158Z,1.56
2022-12-19T04:32:10.346Z,1.61
2022-12-19T04:34:40.186Z,1.64
2022-12-19T04:37:09.794Z,1.67
2022-12-19T04:39:36.277Z,1.73
2022-12-19T04:42:02.720Z,1.70
2022-12-19T04:44:29.209Z,1.70
2022-12-19T04:46:55.672Z,1.68
2022-12-19T04:49:22.114Z,1.76
2022-12-19T04:51:49.078Z,1.74
2022-12-19T04:54:15.524Z,1.81
2022-12-19T04:56:42.105Z,1.79
2022-12-19T04:59:08.657Z,1.79
2022-12-19T05:01:35.193Z,1.86
2022-12-19T05:04:04.694Z,1.81
2022-12-19T05:06:32.030Z,1.80
2022-12-19T05:08:58.468Z,1.77
2022-12-19T05:11:24.930Z,1.73
2022-12-19T05:13:51.633Z,1.73
2022-12-19T05:16:18.725Z,1.76
2022-12-19T05:18:45.358Z,1.85
2022-12-19T05:21:12.471Z,1.81
2022-12-19T05:23:39.041Z,1.85
2022-12-19T05:26:06.744Z,1.80
2022-12-19T05:28:34.480Z,1.91
2022-12-19T05:31:16.252Z,1.91
2022-12-19T05:33:43.660Z,1.87
2022-12-19T05:36:11.697Z,1.84
2022-12-19T05:38:38.127Z,1.85
2022-12-19T05:41:15.646Z,1.86
2022-12-19T05:43:44.033Z,1.89
2022-12-19T05:46:10.769Z,2.00
2022-12-19T05:48:37.862Z,1.97
2022-12-19T05:51:04.752Z,1.97
2022-12-19T05:53:36.925Z,1.97
2022-12-19T05:56:04.416Z,2.01
2022-12-19T05:58:31.355Z,2.02
2022-12-19T06:01:07.573Z,2.07
2022-12-19T06:03:34.169Z,2.10
2022-12-19T06:06:11.172Z,2.16
2022-12-19T06:08:38.350Z,2.15
2022-12-19T06:11:06.971Z,2.18
2022-12-19T06:13:33.531Z,2.18
2022-12-19T06:16:12.748Z,2.18
2022-12-19T06:18:44.264Z,2.15
2022-12-19T06:21:22.370Z,2.18
2022-12-19T06:23:50.014Z,2.19
2022-12-19T06:26:20.145Z,2.23
2022-12-19T06:28:51.972Z,2.31
2022-12-19T06:31:20.528Z,2.25
2022-12-19T06:33:47.076Z,2.33
2022-12-19T06:36:20.683Z,2.39
2022-12-19T06:38:48.367Z,2.40
2022-12-19T06:41:34.409Z,2.43
2022-12-19T06:44:02.629Z,2.46
2022-12-19T06:46:29.299Z,2.49
2022-12-19T06:48:56.255Z,2.58
2022-12-19T06:51:23.382Z,2.55
2022-12-19T06:53:50.012Z,2.59
2022-12-19T06:56:17.333Z,2.66
2022-12-19T06:58:44.277Z,2.62
2022-12-19T07:01:22.096Z,2.62
2022-12-19T07:03:49.287Z,2.66
2022-12-19T07:06:15.901Z,2.74
2022-12-19T07:08:42.725Z,2.69
2022-12-19T07:11:09.215Z,2.77
2022-12-19T07:13:35.627Z,2.76
2022-12-19T07:16:04.797Z,2.80
2022-12-19T07:18:34.494Z,2.83
2022-12-19T07:21:02.240Z,2.83
2022-12-19T07:23:29.254Z,2.83
2022-12-19T07:25:55.831Z,2.89
2022-12-19T07:28:22.431Z,2.89
2022-12-19T07:30:48.917Z,2.94
2022-12-19T07:33:21.076Z,3.05
2022-12-19T07:35:48.246Z,3.03
2022-12-19T07:38:14.862Z,3.04
2022-12-19T07:40:41.278Z,3.07
2022-12-19T07:43:07.939Z,3.08
2022-12-19T07:45:37.561Z,3.18
2022-12-19T07:48:05.928Z,3.17
2022-12-19T07:50:33.488Z,3.11
2022-12-19T07:53:00.668Z,3.22
2022-12-19T07:55:36.912Z,3.21
2022-12-19T07:58:03.387Z,3.24
2022-12-19T08:00:31.352Z,3.29
2022-12-19T08:03:00.831Z,3.29
2022-12-19T08:05:30.951Z,3.24
2022-12-19T08:07:58.027Z,3.29
2022-12-19T08:10:24.555Z,3.33
2022-12-19T08:12:56.089Z,3.40
2022-12-19T08:15:22.809Z,3.39
2022-12-19T08:17:49.404Z,3.34
2022-12-19T08:20:32.250Z,3.42
2022-12-19T08:22:59.178Z,3.41
2022-12-19T08:25:25.754Z,3.46
2022-12-19T08:27:52.209Z,3.46
2022-12-19T08:30:19.479Z,3.48
2022-12-19T08:32:46.150Z,3.51
2022-12-19T08:35:12.995Z,3.52
2022-12-19T08:37:40.153Z,3.53
2022-12-19T08:40:07.540Z,3.58
2022-12-19T08:42:34.806Z,3.59
2022-12-19T08:45:01.713Z,3.62
2022-12-19T08:47:28.345Z,3.60
2022-12-19T08:49:54.889Z,3.61
2022-12-19T08:52:21.486Z,3.62
2022-12-19T08:54:52.289Z,3.67
2022-12-19T08:57:19.373Z,3.71
2022-12-19T08:59:45.930Z,3.67
2022-12-19T09:02:13.274Z,3.62
2022-12-19T09:05:59.654Z,3.72
2022-12-19T09:07:27.080Z,3.74
2022-12-19T09:09:54.342Z,3.76
2022-12-19T09:12:21.093Z,3.71
2022-12-19T09:14:47.625Z,3.86
2022-12-19T09:17:14.252Z,3.89
2022-12-19T09:19:41.981Z,3.84
2022-12-19T09:22:13.602Z,3.84
2022-12-19T09:24:40.520Z,3.84
2022-12-19T09:27:07.045Z,3.87
2022-12-19T09:29:35.476Z,3.90
2022-12-19T09:32:02.663Z,4.01
2022-12-19T09:34:36.753Z,4.00
2022-12-19T09:37:06.460Z,3.97
2022-12-19T09:39:34.041Z,3.93
2022-12-19T09:42:15.165Z,3.98
2022-12-19T09:45:08.330Z,4.02
2022-12-19T09:47:42.583Z,4.07
2022-12-19T09:50:36.383Z,4.08
2022-12-19T09:53:08.105Z,4.09
2022-12-19T09:55:38.050Z,4.05
2022-12-19T09:58:18.167Z,4.11
2022-12-19T10:00:57.384Z,4.06
2022-12-19T10:03:43.562Z,4.05
2022-12-19T10:07:16.200Z,4.11
2022-12-19T10:10:19.075Z,4.10
2022-12-19T10:12:40.546Z,4.12
2022-12-19T10:15:45.458Z,4.14
2022-12-19T10:18:19.333Z,4.01
2022-12-19T10:21:03.005Z,3.99
2022-12-19T10:24:04.550Z,4.06
2022-12-19T10:26:49.749Z,4.03
2022-12-19T10:29:57.038Z,4.13
2022-12-19T10:32:27.920Z,4.21
2022-12-19T10:34:55.132Z,4.24
2022-12-19T10:37:36.772Z,4.25
2022-12-19T10:40:32.240Z,4.29
2022-12-19T10:43:10.365Z,4.22
2022-12-19T10:45:45.482Z,4.23
2022-12-19T10:48:18.748Z,4.25
2022-12-19T10:50:47.727Z,4.24
2022-12-19T10:53:15.526Z,4.32
2022-12-19T10:55:47.119Z,4.29
2022-12-19T10:58:21.510Z,4.29
2022-12-19T11:01:12.790Z,4.37
2022-12-19T11:03:42.158Z,4.25
2022-12-19T11:06:37.602Z,4.35
2022-12-19T11:09:21.382Z,4.25
2022-12-19T11:16:25.611Z,4.21
2022-12-19T11:17:12.474Z,4.27
2022-12-19T11:25:37.032Z,4.40
2022-12-19T11:29:30.011Z,4.47
2022-12-19T11:29:30.941Z,4.41
2022-12-19T11:29:41.075Z,4.37
2022-12-19T11:30:46.603Z,4.42
2022-12-19T11:34:28.323Z,4.49
2022-12-19T11:37:24.077Z,4.52
2022-12-19T11:39:57.397Z,4.51
2022-12-19T11:42:30.561Z,4.60
2022-12-19T11:45:12.029Z,4.62
2022-12-19T11:47:47.190Z,4.72
2022-12-19T11:50:27.071Z,4.69
2022-12-19T11:53:16.596Z,4.67
2022-12-19T11:55:52.972Z,4.72
2022-12-19T11:58:19.839Z,4.76
2022-12-19T12:00:55.003Z,4.85
2022-12-19T12:04:01.116Z,4.87
2022-12-19T12:06:34.020Z,4.84
2022-12-19T12:11:50.166Z,4.85
2022-12-19T12:20:04.397Z,4.82
2022-12-19T12:29:13.013Z,4.95
2022-12-19T12:31:11.835Z,5.03
2022-12-19T12:31:15.661Z,4.91
2022-12-19T12:31:47.166Z,5.09
2022-12-19T12:31:51.156Z,5.08
2022-12-19T12:35:38.558Z,5.06
2022-12-19T12:38:33.774Z,5.24
2022-12-19T12:41:43.592Z,5.19
2022-12-19T12:44:12.024Z,5.24
2022-12-19T12:46:44.604Z,5.22
2022-12-19T12:49:37.186Z,5.30
2022-12-19T12:52:07.007Z,5.33
2022-12-19T12:54:37.923Z,5.34
2022-12-19T12:57:04.687Z,5.38
2022-12-19T12:59:31.827Z,5.39
2022-12-19T13:02:18.752Z,5.34
2022-12-19T13:04:59.331Z,5.45
2022-12-19T13:07:42.759Z,5.36
2022-12-19T13:10:53.696Z,5.31
2022-12-19T13:13:25.771Z,5.36
2022-12-19T13:15:52.385Z,5.31
2022-12-19T13:18:32.113Z,5.33
2022-12-19T13:21:00.132Z,5.32
2022-12-19T13:23:26.523Z,5.46
2022-12-19T13:25:54.499Z,5.34
2022-12-19T13:28:20.946Z,5.37
2022-12-19T13:31:18.658Z,5.27
2022-12-19T13:33:56.450Z,5.36
2022-12-19T13:39:49.008Z,5.35
2022-12-19T13:40:11.212Z,5.34
2022-12-19T13:43:10.338Z,5.33
2022-12-19T13:45:41.062Z,5.42
2022-12-19T13:48:17.277Z,5.48
2022-12-19T13:50:49.400Z,5.45
2022-12-19T13:53:18.891Z,5.34
2022-12-19T13:55:45.829Z,5.35
2022-12-19T13:58:36.792Z,5.33
2022-12-19T14:01:08.480Z,5.30
2022-12-19T14:03:49.155Z,5.21
2022-12-19T14:06:26.356Z,5.27
2022-12-19T14:09:16.719Z,5.24
2022-12-19T14:12:29.638Z,5.26
2022-12-19T14:15:12.251Z,5.29
2022-12-19T14:17:36.834Z,5.27
2022-12-19T14:22:04.512Z,5.20
2022-12-19T14:23:04.655Z,5.20
2022-12-19T14:28:21.635Z,5.18
2022-12-19T14:28:47.574Z,5.33
2022-12-19T14:31:19.297Z,5.29
2022-12-19T14:34:04.614Z,5.34
2022-12-19T14:36:38.386Z,5.37
2022-12-19T14:39:22.476Z,5.34
2022-12-19T14:42:19.268Z,5.30
2022-12-19T14:51:51.446Z,5.25
2022-12-19T14:53:33.958Z,5.29
2022-12-19T14:54:16.121Z,5.39
2022-12-19T14:54:43.807Z,5.35
2022-12-19T14:59:00.792Z,5.31
2022-12-19T15:01:33.252Z,5.32
2022-12-19T15:04:51.141Z,5.37
2022-12-19T15:07:06.946Z,5.38
2022-12-19T15:11:05.010Z,5.31
2022-12-19T15:14:50.663Z,5.31
2022-12-19T15:16:07.240Z,5.44
2022-12-19T15:18:33.806Z,5.35
2022-12-19T15:21:02.959Z,5.34
2022-12-19T15:23:30.789Z,5.34
2022-12-19T15:26:03.969Z,5.27
2022-12-19T15:28:50.454Z,5.32
2022-12-19T15:31:29.702Z,5.30
2022-12-19T15:36:43.520Z,5.39
2022-12-19T15:39:09.978Z,5.41
2022-12-19T15:41:36.737Z,5.41
2022-12-19T15:44:20.664Z,5.44
2022-12-19T15:46:49.307Z,5.47
2022-12-19T15:49:18.512Z,5.46
2022-12-19T15:51:45.377Z,5.48
2022-12-19T15:56:58.769Z,5.51
2022-12-19T15:59:36.372Z,5.54
2022-12-19T16:02:14.433Z,5.53
2022-12-19T16:04:41.158Z,5.60
2022-12-19T16:07:20.026Z,5.52
2022-12-19T16:09:47.330Z,5.50
2022-12-19T16:12:20.426Z,5.59
2022-12-19T16:14:53.133Z,5.58
2022-12-19T16:17:21.804Z,5.47
2022-12-19T16:19:48.749Z,5.54
2022-12-19T16:22:27.477Z,5.51
2022-12-19T16:24:54.690Z,5.52
2022-12-19T16:27:27.557Z,5.52
2022-12-19T16:29:54.705Z,5.49
2022-12-19T16:32:24.274Z,5.54
2022-12-19T16:34:52.356Z,5.58
2022-12-19T16:37:19.090Z,5.51
2022-12-19T16:39:45.582Z,5.44
2022-12-19T16:42:16.823Z,5.48
2022-12-19T16:44:47.795Z,5.63
2022-12-19T16:47:17.404Z,5.63
2022-12-19T16:49:44.736Z,5.68
2022-12-19T16:52:11.688Z,5.71
2022-12-19T16:54:38.112Z,5.70
2022-12-19T16:57:06.763Z,5.73
2022-12-19T16:59:36.761Z,5.88
2022-12-19T17:02:27.341Z,5.87
2022-12-19T17:04:54.329Z,5.78
2022-12-19T17:07:20.800Z,5.82
2022-12-19T17:09:47.256Z,5.85
2022-12-19T17:12:18.005Z,5.88
2022-12-19T17:14:44.846Z,5.84
2022-12-19T17:17:15.848Z,5.89
2022-12-19T17:19:45.216Z,5.88
2022-12-19T17:22:16.996Z,5.90
2022-12-19T17:24:50.032Z,6.03
2022-12-19T17:27:17.594Z,5.99
2022-12-19T17:29:44.444Z,5.98
2022-12-19T17:32:23.135Z,5.98
2022-12-19T17:34:50.783Z,5.91
2022-12-19T17:37:17.518Z,5.96
2022-12-19T17:39:43.934Z,6.01
2022-12-19T17:42:21.734Z,5.98
2022-12-19T17:44:48.225Z,5.87
2022-12-19T17:47:16.068Z,6.01
2022-12-19T17:49:42.997Z,5.94
2022-12-19T17:52:19.949Z,5.93
2022-12-19T17:54:46.532Z,5.88
2022-12-19T17:57:17.811Z,5.87
2022-12-19T17:59:46.274Z,5.91
2022-12-19T18:02:20.864Z,6.00
2022-12-19T18:04:47.455Z,6.08
2022-12-19T18:07:16.888Z,6.10
2022-12-19T18:09:44.058Z,6.16
2022-12-19T18:12:10.858Z,6.20
2022-12-19T18:14:37.467Z,6.26
2022-12-19T18:17:05.264Z,6.25
2022-12-19T18:19:34.220Z,6.19
2022-12-19T18:22:00.886Z,6.21
2022-12-19T18:24:27.324Z,6.07
2022-12-19T18:26:53.818Z,6.07
2022-12-19T18:29:20.244Z,6.05
2022-12-19T18:31:51.021Z,6.11
2022-12-19T18:34:21.486Z,6.05
2022-12-19T18:36:48.764Z,6.00
2022-12-19T18:39:18.286Z,5.93
2022-12-19T18:41:44.763Z,5.88
2022-12-19T18:44:13.328Z,6.06
2022-12-19T18:46:40.693Z,6.01
2022-12-19T18:49:07.285Z,6.00
2022-12-19T18:51:33.705Z,5.95
2022-12-19T18:54:00.417Z,6.04
2022-12-19T18:56:26.902Z,6.14
2022-12-19T18:58:53.356Z,6.08
2022-12-19T19:01:21.802Z,6.00
2022-12-19T19:03:56.445Z,6.13
2022-12-19T19:06:28.446Z,6.28
2022-12-19T19:08:58.852Z,6.23
2022-12-19T19:11:25.799Z,6.31
2022-12-19T19:13:52.928Z,6.17
2022-12-19T19:16:23.327Z,6.13
2022-12-19T19:18:52.950Z,6.20
2022-12-19T19:21:21.368Z,6.19
2022-12-19T19:23:55.403Z,6.28
2022-12-19T19:26:22.159Z,6.33
2022-12-19T19:28:52.199Z,6.28
2022-12-19T19:31:21.748Z,6.27
2022-12-19T19:33:53.115Z,6.21
2022-12-19T19:36:24.012Z,6.14
2022-12-19T19:38:54.897Z,6.13
2022-12-19T19:41:24.205Z,6.17
2022-12-19T19:43:50.654Z,6.20
2022-12-19T19:46:17.268Z,6.43
2022-12-19T19:48:43.824Z,6.42
2022-12-19T19:51:11.944Z,6.46
2022-12-19T19:53:38.472Z,6.68
2022-12-19T19:56:05.284Z,6.59
2022-12-19T19:58:32.169Z,6.54
2022-12-19T20:00:59.160Z,6.53
2022-12-19T20:03:26.867Z,6.55
2022-12-19T20:06:01.269Z,6.65
2022-12-19T20:08:30.980Z,6.55
2022-12-19T20:11:00.486Z,6.57
2022-12-19T20:13:30.276Z,6.44
2022-12-19T20:16:04.903Z,6.42
2022-12-19T20:18:31.473Z,6.61
2022-12-19T20:20:58.010Z,6.68
2022-12-19T20:23:25.370Z,6.64
2022-12-19T20:25:51.870Z,6.62
2022-12-19T20:28:18.469Z,6.64
2022-12-19T20:30:45.452Z,6.55
2022-12-19T20:33:12.122Z,6.66
2022-12-19T20:35:38.622Z,6.68
2022-12-19T20:38:05.040Z,6.58
2022-12-19T20:40:31.544Z,6.64
2022-12-19T20:42:58.014Z,6.58
2022-12-19T20:45:38.958Z,6.67
2022-12-19T20:48:05.704Z,6.67
2022-12-19T20:50:32.179Z,6.85
2022-12-19T20:52:58.676Z,6.75
2022-12-19T20:55:25.217Z,6.77
2022-12-19T20:57:51.664Z,6.99
2022-12-19T21:00:18.810Z,6.97
2022-12-19T21:03:25.740Z,6.83
2022-12-19T21:05:31.694Z,6.87
2022-12-19T21:07:58.145Z,6.76
2022-12-19T21:10:24.603Z,6.82
2022-12-19T21:12:51.285Z,6.82
2022-12-19T21:15:17.816Z,6.82
2022-12-19T21:17:44.247Z,7.00
2022-12-19T21:20:11.562Z,6.97
2022-12-19T21:22:38.017Z,6.97
2022-12-19T21:25:05.050Z,6.94
2022-12-19T21:27:31.607Z,6.99
2022-12-19T21:29:58.059Z,7.07
2022-12-19T21:32:24.551Z,7.13
2022-12-19T21:34:53.309Z,7.13
2022-12-19T21:37:19.897Z,7.12
2022-12-19T21:39:46.354Z,7.16
2022-12-19T21:42:12.850Z,7.18
2022-12-19T21:44:39.265Z,7.16
2022-12-19T21:47:05.735Z,7.32
2022-12-19T21:49:32.218Z,7.32
2022-12-19T21:51:58.635Z,7.37
2022-12-19T21:54:25.078Z,7.41
2022-12-19T21:56:51.536Z,7.41
2022-12-19T21:59:18.025Z,7.41
2022-12-19T22:01:44.962Z,7.55
2022-12-19T22:04:17.926Z,7.54
2022-12-19T22:06:44.578Z,7.50
2022-12-19T22:09:14.525Z,7.54
2022-12-19T22:11:41.470Z,7.42
2022-12-19T22:14:08.730Z,7.51
2022-12-19T22:16:35.762Z,7.49
2022-12-19T22:19:03.174Z,7.34
2022-12-19T22:21:30.016Z,7.40
2022-12-19T22:24:01.630Z,7.32
2022-12-19T22:26:30.090Z,7.47
2022-12-19T22:28:57.670Z,7.40
2022-12-19T22:31:32.891Z,7.48
2022-12-19T22:34:05.801Z,7.44
2022-12-19T22:36:34.259Z,7.53
2022-12-19T22:39:02.731Z,7.56
2022-12-19T22:41:29.584Z,7.55
2022-12-19T22:43:56.684Z,7.61
2022-12-19T22:46:28.369Z,7.61
2022-12-19T22:49:00.489Z,7.58
2022-12-19T22:51:29.595Z,7.44
2022-12-19T22:53:56.443Z,7.42
2022-12-19T22:56:26.512Z,7.37
2022-12-19T22:58:54.630Z,7.41
2022-12-19T23:01:26.262Z,7.40
2022-12-19T23:03:55.556Z,7.24
2022-12-19T23:06:23.652Z,7.28
2022-12-19T23:08:50.176Z,7.41
2022-12-19T23:11:19.817Z,7.41
2022-12-19T23:13:47.681Z,7.43
2022-12-19T23:16:14.755Z,7.37
2022-12-19T23:18:41.716Z,7.43
2022-12-19T23:21:09.234Z,7.37
2022-12-19T23:23:39.881Z,7.37
2022-12-19T23:26:15.123Z,7.47
2022-12-19T23:28:43.966Z,7.42
2022-12-19T23:31:13.180Z,7.47
2022-12-19T23:33:39.680Z,7.45
2022-12-19T23:36:07.044Z,7.47
2022-12-19T23:38:34.259Z,7.61
2022-12-19T23:41:06.065Z,7.60
2022-12-19T23:43:34.140Z,7.63
2022-12-19T23:46:23.919Z,7.55
2022-12-19T23:48:51.645Z,7.48
2022-12-19T23:51:20.895Z,7.46
2022-12-19T23:53:48.152Z,7.54
2022-12-19T23:56:20.589Z,7.70
2022-12-19T23:58:47.134Z,7.56
